createdAt,value
2018-11-03T00:03:21.942Z,6.30
2018-11-03T00:08:26.339Z,5.97
2018-11-03T00:13:35.742Z,5.57
2018-11-03T00:18:39.802Z,5.50
2018-11-03T00:23:44.035Z,6.07
2018-11-03T00:28:47.926Z,5.67
2018-11-03T00:33:51.785Z,6.00
2018-11-03T00:38:55.662Z,6.60
2018-11-03T00:43:59.508Z,6.53
2018-11-03T00:49:03.613Z,6.63
2018-11-03T00:54:07.447Z,7.10
2018-11-03T00:59:11.295Z,7.20
2018-11-03T01:04:15.144Z,7.03
2018-11-03T01:09:19.010Z,7.57
2018-11-03T01:14:22.973Z,6.73
2018-11-03T01:19:26.837Z,6.47
2018-11-03T01:24:37.051Z,6.23
2018-11-03T01:29:40.922Z,6.70
2018-11-03T01:34:44.790Z,6.83
2018-11-03T01:39:48.644Z,6.40
2018-11-03T01:44:52.495Z,6.27
2018-11-03T01:49:56.338Z,6.63
2018-11-03T01:55:00.173Z,6.90
2018-11-03T02:00:04.271Z,6.07
2018-11-03T02:05:08.707Z,6.53
2018-11-03T02:10:12.834Z,6.13
2018-11-03T02:15:16.686Z,5.93
2018-11-03T02:20:20.532Z,6.70
2018-11-03T02:25:24.379Z,6.10
2018-11-03T02:30:28.929Z,7.17
2018-11-03T02:35:33.115Z,6.80
2018-11-03T02:40:36.962Z,6.83
2018-11-03T02:45:40.798Z,7.33
2018-11-03T02:50:44.650Z,6.93
2018-11-03T02:55:48.499Z,7.00
2018-11-03T03:00:52.363Z,7.03
2018-11-03T03:05:56.217Z,6.80
2018-11-03T03:11:00.052Z,7.43
2018-11-03T03:16:03.899Z,7.33
2018-11-03T03:21:07.779Z,6.97
2018-11-03T03:26:11.628Z,8.80
2018-11-03T03:31:15.461Z,8.67
2018-11-03T03:36:19.339Z,8.13
2018-11-03T03:41:23.183Z,9.13
2018-11-03T03:46:27.015Z,9.40
2018-11-03T03:51:30.951Z,9.40
2018-11-03T03:56:34.795Z,10.23
2018-11-03T04:01:38.642Z,9.77
2018-11-03T04:06:42.479Z,11.33
2018-11-03T04:11:46.340Z,12.43
2018-11-03T04:16:50.265Z,11.93
2018-11-03T04:21:54.116Z,12.07
2018-11-03T04:26:57.963Z,11.50
2018-11-03T04:32:01.803Z,11.10
2018-11-03T04:37:05.661Z,11.67
2018-11-03T04:42:16.327Z,12.67
2018-11-03T04:47:20.170Z,12.07
2018-11-03T04:52:24.026Z,12.00
2018-11-03T04:57:27.955Z,11.90
2018-11-03T05:02:31.795Z,12.77
2018-11-03T05:07:35.654Z,11.87
2018-11-03T05:12:39.526Z,11.03
2018-11-03T05:17:43.125Z,11.53
2018-11-03T05:22:46.867Z,11.60
2018-11-03T05:27:50.749Z,10.93
2018-11-03T05:32:54.578Z,11.47
2018-11-03T05:37:58.423Z,11.10
2018-11-03T05:43:02.390Z,11.20
2018-11-03T05:48:06.191Z,11.13
2018-11-03T05:53:10.040Z,10.80
2018-11-03T05:58:13.883Z,11.33
2018-11-03T06:03:17.751Z,11.57
2018-11-03T06:08:21.619Z,11.97
2018-11-03T06:13:25.467Z,13.13
2018-11-03T06:18:29.313Z,12.30
2018-11-03T06:23:33.219Z,11.87
2018-11-03T06:28:37.002Z,12.10
2018-11-03T06:33:40.871Z,12.63
2018-11-03T06:38:44.837Z,11.80
2018-11-03T06:43:48.639Z,13.77
2018-11-03T06:48:53.750Z,12.90
2018-11-03T06:53:57.631Z,13.37
2018-11-03T06:59:01.491Z,11.37
2018-11-03T07:04:06.447Z,11.33
2018-11-03T07:09:12.110Z,12.83
2018-11-03T07:14:15.999Z,13.00
2018-11-03T07:19:20.939Z,12.23
2018-11-03T07:24:24.798Z,12.63
2018-11-03T07:29:28.708Z,12.30
2018-11-03T07:34:32.523Z,12.37
2018-11-03T07:39:36.390Z,12.03
2018-11-03T07:44:40.256Z,12.07
2018-11-03T07:49:44.113Z,12.53
2018-11-03T07:54:48.173Z,11.73
2018-11-03T07:59:51.955Z,11.73
2018-11-03T08:04:55.959Z,11.40
2018-11-03T08:10:00.888Z,11.87
2018-11-03T08:15:07.252Z,11.17
2018-11-03T08:20:12.004Z,11.93
2018-11-03T08:25:16.335Z,11.87
2018-11-03T08:30:20.333Z,12.13
2018-11-03T08:35:24.528Z,10.97
2018-11-03T08:40:28.444Z,11.73
2018-11-03T08:45:32.330Z,11.43
2018-11-03T08:50:36.495Z,10.87
2018-11-03T08:55:40.752Z,11.53
2018-11-03T09:00:44.738Z,11.30
2018-11-03T09:05:48.638Z,12.23
2018-11-03T09:10:52.548Z,11.53
2018-11-03T09:15:57.318Z,10.50
2018-11-03T09:21:01.331Z,9.93
2018-11-03T09:26:07.355Z,10.53
2018-11-03T09:31:11.910Z,10.27
2018-11-03T09:36:16.366Z,9.90
2018-11-03T09:41:20.736Z,9.60
2018-11-03T09:46:25.019Z,9.27
2018-11-03T09:51:29.407Z,9.57
2018-11-03T09:56:33.266Z,9.93
2018-11-03T10:01:37.990Z,10.33
2018-11-03T10:06:42.844Z,9.60
2018-11-03T10:11:47.483Z,9.70
2018-11-03T10:16:53.110Z,9.50
2018-11-03T10:21:59.959Z,9.47
2018-11-03T10:27:04.639Z,9.17
2018-11-03T10:32:09.175Z,8.87
2018-11-03T10:37:13.933Z,8.97
2018-11-03T10:42:18.588Z,9.40
2018-11-03T10:47:24.720Z,8.20
2018-11-03T10:52:29.629Z,8.30
2018-11-03T10:57:34.205Z,8.67
2018-11-03T11:02:44.176Z,9.07
2018-11-03T11:07:53.655Z,8.97
2018-11-03T11:13:01.148Z,8.50
2018-11-03T11:18:05.519Z,8.50
2018-11-03T11:23:09.886Z,8.13
2018-11-03T11:28:14.821Z,10.00
2018-11-03T11:33:19.673Z,9.27
2018-11-03T11:38:24.581Z,9.40
2018-11-03T11:43:30.000Z,9.97
2018-11-03T11:48:34.437Z,9.33
2018-11-03T11:53:41.419Z,9.60
2018-11-03T11:58:47.828Z,9.50
2018-11-03T12:03:51.948Z,9.90
2018-11-03T12:08:55.906Z,9.67
2018-11-03T12:13:59.826Z,9.23
2018-11-03T12:19:03.709Z,10.30
2018-11-03T12:24:07.576Z,10.37
2018-11-03T12:29:12.426Z,8.90
2018-11-03T12:34:16.271Z,9.67
2018-11-03T12:39:20.158Z,10.23
2018-11-03T12:44:24.194Z,10.03
2018-11-03T12:49:27.991Z,9.50
2018-11-03T12:54:38.331Z,9.30
2018-11-03T12:59:42.193Z,9.43
2018-11-03T13:04:46.058Z,10.37
2018-11-03T13:09:50.557Z,8.67
2018-11-03T13:14:54.343Z,9.33
2018-11-03T13:19:58.243Z,8.30
2018-11-03T13:25:02.093Z,9.10
2018-11-03T13:30:07.146Z,9.00
2018-11-03T13:35:12.123Z,11.83
2018-11-03T13:40:15.975Z,10.20
2018-11-03T13:45:19.818Z,9.37
2018-11-03T13:50:23.678Z,9.67
2018-11-03T13:55:27.574Z,10.27
2018-11-03T14:00:31.408Z,10.37
2018-11-03T14:05:35.303Z,10.27
2018-11-03T14:10:39.298Z,11.93
2018-11-03T14:15:43.158Z,11.10
2018-11-03T14:20:47.025Z,11.60
2018-11-03T14:25:51.723Z,12.30
2018-11-03T14:30:55.834Z,11.90
2018-11-03T14:35:59.942Z,11.80
2018-11-03T14:41:08.692Z,12.10
2018-11-03T14:46:12.599Z,12.93
2018-11-03T14:51:17.219Z,16.00
2018-11-03T14:56:21.140Z,15.97
2018-11-03T15:01:25.159Z,17.23
2018-11-03T15:06:29.237Z,15.73
2018-11-03T15:11:33.134Z,22.63
2018-11-03T15:16:37.309Z,17.33
2018-11-03T15:21:41.191Z,18.73
2018-11-03T15:26:45.112Z,20.80
2018-11-03T15:31:49.006Z,20.97
2018-11-03T15:36:52.990Z,20.97
2018-11-03T15:41:56.847Z,20.67
2018-11-03T15:47:00.734Z,21.53
2018-11-03T15:52:04.830Z,23.30
2018-11-03T15:57:08.727Z,21.27
2018-11-03T16:02:12.623Z,22.43
2018-11-03T16:07:16.476Z,20.93
2018-11-03T16:12:20.525Z,21.33
2018-11-03T16:17:24.296Z,21.03
2018-11-03T16:22:28.276Z,21.90
2018-11-03T16:27:32.142Z,22.10
2018-11-03T16:32:36.271Z,28.90
2018-11-03T16:37:40.388Z,26.63
2018-11-03T16:42:45.191Z,25.40
2018-11-03T16:47:49.163Z,23.60
2018-11-03T16:52:53.547Z,23.27
2018-11-03T16:57:57.536Z,23.53
2018-11-03T17:03:01.494Z,23.97
2018-11-03T17:08:05.424Z,31.23
2018-11-03T17:13:09.371Z,27.60
2018-11-03T17:18:13.244Z,26.13
2018-11-03T17:23:17.186Z,26.30
2018-11-03T17:28:21.007Z,26.87
2018-11-03T17:33:24.916Z,25.90
2018-11-03T17:38:28.784Z,26.17
2018-11-03T17:43:32.707Z,27.97
2018-11-03T17:48:37.465Z,26.83
2018-11-03T17:53:41.637Z,25.47
2018-11-03T17:58:46.575Z,24.73
2018-11-03T18:03:52.252Z,23.70
2018-11-03T18:08:56.139Z,24.93
2018-11-03T18:14:00.021Z,25.97
2018-11-03T18:19:04.028Z,23.63
2018-11-03T18:24:08.007Z,24.60
2018-11-03T18:29:11.907Z,25.70
2018-11-03T18:34:15.818Z,24.33
2018-11-03T18:39:19.686Z,25.77
2018-11-03T18:44:24.527Z,26.57
2018-11-03T18:49:28.398Z,25.30
2018-11-03T18:54:32.259Z,24.60
2018-11-03T18:59:36.227Z,25.73
2018-11-03T19:04:40.087Z,25.40
2018-11-03T19:09:44.020Z,26.57
2018-11-03T19:14:47.952Z,24.63
2018-11-03T19:19:51.831Z,26.40
2018-11-03T19:24:56.692Z,25.47
2018-11-03T19:30:00.700Z,25.10
2018-11-03T19:35:04.639Z,26.47
2018-11-03T19:40:10.162Z,25.20
2018-11-03T19:45:14.063Z,26.73
2018-11-03T19:50:17.987Z,26.00
2018-11-03T19:55:21.911Z,25.20
2018-11-03T20:00:25.933Z,28.40
2018-11-03T20:05:31.324Z,27.43
2018-11-03T20:10:35.228Z,26.33
2018-11-03T20:15:39.109Z,28.23
2018-11-03T20:20:45.511Z,27.43
2018-11-03T20:25:49.388Z,27.03
2018-11-03T20:30:53.262Z,27.90
2018-11-03T20:35:57.175Z,27.17
2018-11-03T20:41:01.159Z,25.67
2018-11-03T20:46:05.482Z,26.97
2018-11-03T20:51:11.316Z,26.23
2018-11-03T20:56:15.255Z,27.30
2018-11-03T21:01:19.182Z,26.70
2018-11-03T21:06:23.244Z,26.47
2018-11-03T21:11:27.145Z,24.73
2018-11-03T21:16:31.144Z,26.27
2018-11-03T21:21:34.984Z,26.27
2018-11-03T21:26:38.963Z,26.03
2018-11-03T21:31:42.860Z,26.43
2018-11-03T21:36:46.765Z,25.40
2018-11-03T21:41:50.650Z,26.50
2018-11-03T21:46:54.753Z,26.70
2018-11-03T21:51:58.520Z,28.43
2018-11-03T21:57:02.479Z,26.83
2018-11-03T22:02:06.182Z,25.20
2018-11-03T22:07:09.947Z,26.47
2018-11-03T22:12:14.006Z,28.40
2018-11-03T22:17:17.967Z,26.30
2018-11-03T22:22:21.836Z,26.10
2018-11-03T22:27:25.723Z,29.10
2018-11-03T22:32:29.707Z,26.83
2018-11-03T22:37:33.563Z,29.53
2018-11-03T22:42:37.511Z,27.03
2018-11-03T22:47:41.569Z,26.70
2018-11-03T22:52:45.565Z,26.77
2018-11-03T22:57:49.735Z,26.33
2018-11-03T23:02:53.735Z,23.50
2018-11-03T23:07:57.667Z,23.87
2018-11-03T23:13:01.948Z,24.23
2018-11-03T23:18:05.849Z,24.37
2018-11-03T23:23:09.742Z,26.43
2018-11-03T23:28:13.971Z,24.93
2018-11-03T23:33:17.825Z,25.13
2018-11-03T23:38:21.675Z,24.37
2018-11-03T23:43:25.730Z,23.63
2018-11-03T23:48:29.729Z,23.23
2018-11-03T23:53:33.598Z,22.53
2018-11-03T23:58:38.465Z,22.67
